createdAt,value
2018-11-20T00:02:57.444Z,20.07
2018-11-20T00:06:30.245Z,19.20
2018-11-20T00:09:44.534Z,17.43
2018-11-20T00:13:14.072Z,17.40
2018-11-20T00:16:37.854Z,18.13
2018-11-20T00:20:00.369Z,23.63
2018-11-20T00:23:22.709Z,18.03
2018-11-20T00:26:38.678Z,16.03
2018-11-20T00:30:05.470Z,18.40
2018-11-20T00:33:27.722Z,16.27
2018-11-20T00:36:47.212Z,19.93
2018-11-20T00:40:26.015Z,18.67
2018-11-20T00:43:48.200Z,19.53
2018-11-20T00:47:27.180Z,19.50
2018-11-20T00:50:47.207Z,19.77
2018-11-20T00:54:03.850Z,21.43
2018-11-20T00:57:36.223Z,20.20
2018-11-20T01:01:03.525Z,20.97
2018-11-20T01:04:27.367Z,27.60
2018-11-20T01:07:49.669Z,16.70
2018-11-20T01:11:31.650Z,19.07
2018-11-20T01:15:01.490Z,15.90
2018-11-20T01:18:31.074Z,19.77
2018-11-20T01:21:51.346Z,18.30
2018-11-20T01:25:29.895Z,16.17
2018-11-20T01:29:05.885Z,12.07
2018-11-20T01:32:38.261Z,15.50
2018-11-20T01:36:14.119Z,12.93
2018-11-20T01:39:49.874Z,11.50
2018-11-20T01:43:12.391Z,11.90
2018-11-20T01:46:42.059Z,12.80
2018-11-20T01:50:17.583Z,12.73
2018-11-20T01:53:53.126Z,13.53
2018-11-20T01:57:19.829Z,14.70
2018-11-20T02:00:41.989Z,11.77
2018-11-20T02:03:58.374Z,13.10
2018-11-20T02:07:32.413Z,13.03
2018-11-20T02:10:56.214Z,14.23
2018-11-20T02:14:31.047Z,18.20
2018-11-20T02:18:04.806Z,14.90
2018-11-20T02:21:27.091Z,16.70
2018-11-20T02:24:55.438Z,17.57
2018-11-20T02:28:19.311Z,18.80
2018-11-20T02:31:51.750Z,15.93
2018-11-20T02:35:18.478Z,17.23
2018-11-20T02:38:48.299Z,19.07
2018-11-20T02:42:16.166Z,18.90
2018-11-20T02:45:40.006Z,22.47
2018-11-20T02:48:56.161Z,18.60
2018-11-20T02:52:19.973Z,18.00
2018-11-20T02:55:35.961Z,20.50
2018-11-20T02:58:58.021Z,17.40
2018-11-20T03:02:20.243Z,23.03
2018-11-20T03:05:42.477Z,20.97
2018-11-20T03:08:54.149Z,22.23
2018-11-20T03:12:26.694Z,24.93
2018-11-20T03:16:00.033Z,23.53
2018-11-20T03:20:11.522Z,27.30
2018-11-20T03:23:29.492Z,30.67
2018-11-20T03:26:50.886Z,26.67
2018-11-20T03:31:03.863Z,23.70
2018-11-20T03:34:41.904Z,24.93
2018-11-20T03:38:20.097Z,18.93
2018-11-20T03:41:51.708Z,20.23
2018-11-20T03:45:20.332Z,20.00
2018-11-20T03:48:43.343Z,20.03
2018-11-20T03:52:11.343Z,17.67
2018-11-20T03:55:32.913Z,15.33
2018-11-20T03:58:58.391Z,17.10
2018-11-20T04:02:19.730Z,22.00
2018-11-20T04:05:42.545Z,18.10
2018-11-20T04:09:20.857Z,21.47
2018-11-20T04:12:42.114Z,18.60
2018-11-20T04:16:13.839Z,19.57
2018-11-20T04:19:35.442Z,17.17
2018-11-20T04:22:50.578Z,21.40
2018-11-20T04:26:13.575Z,19.33
2018-11-20T04:29:25.448Z,24.43
2018-11-20T04:32:48.405Z,22.00
2018-11-20T04:36:08.904Z,20.67
2018-11-20T04:39:32.074Z,21.10
2018-11-20T04:42:51.581Z,21.93
2018-11-20T04:46:12.995Z,21.60
2018-11-20T04:49:45.053Z,18.57
2018-11-20T04:52:57.633Z,22.50
2018-11-20T04:56:19.080Z,19.27
2018-11-20T04:59:57.073Z,23.40
2018-11-20T05:03:26.035Z,19.83
2018-11-20T05:06:48.983Z,24.23
2018-11-20T05:10:13.247Z,24.37
2018-11-20T05:13:35.061Z,19.37
2018-11-20T05:16:52.818Z,23.63
2018-11-20T05:20:24.826Z,23.07
2018-11-20T05:23:56.642Z,17.80
2018-11-20T05:27:19.614Z,20.80
2018-11-20T05:30:42.674Z,21.37
2018-11-20T05:34:05.526Z,24.53
2018-11-20T05:37:34.321Z,20.57
2018-11-20T05:40:57.405Z,21.60
2018-11-20T05:44:19.008Z,18.80
2018-11-20T05:47:40.390Z,20.60
2018-11-20T05:51:09.375Z,20.20
2018-11-20T05:54:39.414Z,19.97
2018-11-20T05:58:08.045Z,20.77
2018-11-20T06:01:28.217Z,23.30
2018-11-20T06:04:49.869Z,18.90
2018-11-20T06:08:27.448Z,15.37
2018-11-20T06:11:52.814Z,17.77
2018-11-20T06:15:15.803Z,17.63
2018-11-20T06:18:48.005Z,18.10
2018-11-20T06:22:16.577Z,19.17
2018-11-20T06:25:38.121Z,17.17
2018-11-20T06:28:57.453Z,19.50
2018-11-20T06:32:26.503Z,17.90
2018-11-20T06:35:49.580Z,16.83
2018-11-20T06:39:11.432Z,14.90
2018-11-20T06:42:33.416Z,15.53
2018-11-20T06:46:14.315Z,14.93
2018-11-20T06:49:36.248Z,17.93
2018-11-20T06:52:58.220Z,17.90
2018-11-20T06:56:36.038Z,18.20
2018-11-20T06:59:57.551Z,18.07
2018-11-20T07:03:20.577Z,17.03
2018-11-20T07:06:42.786Z,16.60
2018-11-20T07:09:55.153Z,16.37
2018-11-20T07:13:42.141Z,16.93
2018-11-20T07:17:09.002Z,15.77
2018-11-20T07:20:32.065Z,16.63
2018-11-20T07:23:58.082Z,17.43
2018-11-20T07:27:23.683Z,14.43
2018-11-20T07:30:49.782Z,17.67
2018-11-20T07:34:07.418Z,14.60
2018-11-20T07:37:19.357Z,16.20
2018-11-20T07:40:42.237Z,18.03
2018-11-20T07:44:12.374Z,16.90
2018-11-20T07:47:50.009Z,20.53
2018-11-20T07:51:13.411Z,14.70
2018-11-20T07:54:36.294Z,14.97
2018-11-20T07:58:14.296Z,13.30
2018-11-20T08:01:39.980Z,19.13
2018-11-20T08:04:50.525Z,16.53
2018-11-20T08:08:11.887Z,17.60
2018-11-20T08:11:52.824Z,21.60
2018-11-20T08:15:21.892Z,16.37
2018-11-20T08:18:43.324Z,17.97
2018-11-20T08:22:04.723Z,19.83
2018-11-20T08:25:27.939Z,16.03
2018-11-20T08:29:02.606Z,16.03
2018-11-20T08:32:37.502Z,17.03
2018-11-20T08:36:03.160Z,19.07
2018-11-20T08:39:33.828Z,15.63
2018-11-20T08:42:59.554Z,14.43
2018-11-20T08:46:34.394Z,18.93
2018-11-20T08:49:55.990Z,15.47
2018-11-20T08:53:12.055Z,17.37
2018-11-20T08:56:35.125Z,18.23
2018-11-20T08:59:56.742Z,14.77
2018-11-20T09:03:28.153Z,14.50
2018-11-20T09:06:57.037Z,16.67
2018-11-20T09:10:28.995Z,15.63
2018-11-20T09:13:52.880Z,12.13
2018-11-20T09:17:14.015Z,12.97
2018-11-20T09:20:35.264Z,12.60
2018-11-20T09:24:07.767Z,11.77
2018-11-20T09:27:33.799Z,14.27
2018-11-20T09:30:55.228Z,11.90
2018-11-20T09:34:17.021Z,11.83
2018-11-20T09:37:40.014Z,12.47
2018-11-20T09:41:02.924Z,15.43
2018-11-20T09:44:40.944Z,16.17
2018-11-20T09:48:12.953Z,13.60
2018-11-20T09:51:51.099Z,12.63
2018-11-20T09:55:29.364Z,10.60
2018-11-20T09:58:50.895Z,10.03
2018-11-20T10:02:12.806Z,11.10
2018-11-20T10:05:41.348Z,8.50
2018-11-20T10:09:16.600Z,8.63
2018-11-20T10:12:42.415Z,7.73
2018-11-20T10:16:00.413Z,8.27
2018-11-20T10:19:24.001Z,10.73
2018-11-20T10:23:05.037Z,8.83
2018-11-20T10:26:30.593Z,7.97
2018-11-20T10:33:40.668Z,7.57
2018-11-20T10:37:06.508Z,7.30
2018-11-20T10:40:47.580Z,8.33
2018-11-20T10:44:10.421Z,7.20
2018-11-20T10:47:35.010Z,8.47
2018-11-20T10:50:56.702Z,8.53
2018-11-20T10:54:31.167Z,6.40
2018-11-20T10:57:56.113Z,6.43
2018-11-20T11:01:17.488Z,6.80
2018-11-20T11:04:29.365Z,5.83
2018-11-20T11:07:41.099Z,7.27
2018-11-20T11:11:03.304Z,7.00
2018-11-20T11:14:24.980Z,7.00
2018-11-20T11:17:46.314Z,6.93
2018-11-20T11:21:09.322Z,6.57
2018-11-20T11:24:24.883Z,6.70
2018-11-20T11:27:46.307Z,6.70
2018-11-20T11:31:07.766Z,5.73
2018-11-20T11:34:29.520Z,7.00
2018-11-20T11:37:52.514Z,7.47
2018-11-20T11:41:13.735Z,6.77
2018-11-20T11:44:35.134Z,6.07
2018-11-20T11:47:51.639Z,5.93
2018-11-20T11:51:13.163Z,5.60
2018-11-20T11:54:34.596Z,5.73
2018-11-20T11:57:57.453Z,8.00
2018-11-20T12:01:17.104Z,7.27
2018-11-20T12:04:38.570Z,10.10
2018-11-20T12:07:55.859Z,5.30
2018-11-20T12:11:21.659Z,6.40
2018-11-20T12:14:44.610Z,6.43
2018-11-20T12:18:10.269Z,6.30
2018-11-20T12:21:33.246Z,5.43
2018-11-20T12:24:59.036Z,4.80
2018-11-20T12:28:14.715Z,4.77
2018-11-20T12:31:44.079Z,4.97
2018-11-20T12:35:25.897Z,5.80
2018-11-20T12:38:50.536Z,7.20
2018-11-20T12:42:07.946Z,6.67
2018-11-20T12:45:42.923Z,5.37
2018-11-20T12:49:06.935Z,4.30
2018-11-20T12:52:27.718Z,4.53
2018-11-20T12:55:49.366Z,6.40
2018-11-20T12:59:13.888Z,4.20
2018-11-20T13:02:40.056Z,6.23
2018-11-20T13:06:09.626Z,4.43
2018-11-20T13:09:27.674Z,5.50
2018-11-20T13:12:50.839Z,4.60
2018-11-20T13:16:12.304Z,5.83
2018-11-20T13:19:35.737Z,4.83
2018-11-20T13:22:55.680Z,5.50
2018-11-20T13:26:20.815Z,4.97
2018-11-20T13:29:46.745Z,5.20
2018-11-20T13:33:09.752Z,5.10
2018-11-20T13:36:31.391Z,5.10
2018-11-20T13:39:51.885Z,4.63
2018-11-20T13:43:25.896Z,4.50
2018-11-20T13:46:46.257Z,5.40
2018-11-20T13:50:07.832Z,5.33
2018-11-20T13:53:27.752Z,5.90
2018-11-20T13:56:49.342Z,5.33
2018-11-20T14:00:11.077Z,5.30
2018-11-20T14:03:49.260Z,6.80
2018-11-20T14:07:20.918Z,5.03
2018-11-20T14:10:42.521Z,5.87
2018-11-20T14:14:05.412Z,4.97
2018-11-20T14:17:44.238Z,5.50
2018-11-20T14:21:22.145Z,5.50
2018-11-20T14:24:45.036Z,5.37
2018-11-20T14:28:25.743Z,6.60
2018-11-20T14:31:57.580Z,5.70
2018-11-20T14:35:26.201Z,5.30
2018-11-20T14:38:59.415Z,5.90
2018-11-20T14:42:25.325Z,6.03
2018-11-20T14:45:46.646Z,11.13
2018-11-20T14:49:08.356Z,6.60
2018-11-20T14:52:46.500Z,7.77
2018-11-20T14:56:06.722Z,6.60
2018-11-20T14:59:32.585Z,6.67
2018-11-20T15:02:54.173Z,6.20
2018-11-20T15:06:32.341Z,6.87
2018-11-20T15:10:13.504Z,6.00
2018-11-20T15:13:40.143Z,7.30
2018-11-20T15:17:04.616Z,7.30
2018-11-20T15:20:26.600Z,7.13
2018-11-20T15:23:49.553Z,11.50
2018-11-20T15:27:30.489Z,8.00
2018-11-20T15:31:11.746Z,9.77
2018-11-20T15:34:40.898Z,8.77
2018-11-20T15:37:54.481Z,9.40
2018-11-20T15:41:15.061Z,10.87
2018-11-20T15:44:36.473Z,10.13
2018-11-20T15:47:57.758Z,8.03
2018-11-20T15:51:20.783Z,8.17
2018-11-20T15:54:58.517Z,7.67
2018-11-20T15:58:30.439Z,9.07
2018-11-20T16:02:05.541Z,10.00
2018-11-20T16:05:29.897Z,8.70
2018-11-20T16:08:51.315Z,8.13
2018-11-20T16:12:26.309Z,10.20
2018-11-20T16:15:49.186Z,9.37
2018-11-20T16:19:21.072Z,10.60
2018-11-20T16:22:54.126Z,12.00
2018-11-20T16:26:12.437Z,8.33
2018-11-20T16:29:34.277Z,9.40
2018-11-20T16:33:03.002Z,11.57
2018-11-20T16:36:40.957Z,15.57
2018-11-20T16:40:22.194Z,8.73
2018-11-20T16:43:57.115Z,11.43
2018-11-20T16:47:20.464Z,16.87
2018-11-20T16:50:55.564Z,17.40
2018-11-20T16:54:21.459Z,15.00
2018-11-20T16:57:47.209Z,14.73
2018-11-20T17:01:12.662Z,15.23
2018-11-20T17:04:50.548Z,17.00
2018-11-20T17:08:15.610Z,12.90
2018-11-20T17:11:37.314Z,11.90
2018-11-20T17:15:15.708Z,15.80
2018-11-20T17:18:38.806Z,15.87
2018-11-20T17:22:01.706Z,14.83
2018-11-20T17:25:18.948Z,13.20
2018-11-20T17:28:45.164Z,21.42
2018-11-20T17:32:22.884Z,16.93
2018-11-20T17:35:40.871Z,15.00
2018-11-20T17:39:02.488Z,15.53
2018-11-20T17:42:34.978Z,12.90
2018-11-20T17:45:57.955Z,15.80
2018-11-20T17:49:18.455Z,14.17
2018-11-20T17:52:33.973Z,14.10
2018-11-20T17:56:07.431Z,15.17
2018-11-20T17:59:29.042Z,15.30
2018-11-20T18:02:50.455Z,20.70
2018-11-20T18:06:12.149Z,13.70
2018-11-20T18:09:50.253Z,12.10
2018-11-20T18:13:22.145Z,20.47
2018-11-20T18:16:54.015Z,18.50
2018-11-20T18:20:25.964Z,12.90
2018-11-20T18:23:40.456Z,16.80
2018-11-20T18:27:00.524Z,15.07
2018-11-20T18:30:30.695Z,12.40
2018-11-20T18:33:56.368Z,14.30
2018-11-20T18:37:12.190Z,15.80
2018-11-20T18:40:41.152Z,15.27
2018-11-20T18:44:05.088Z,15.40
2018-11-20T18:47:45.932Z,15.27
2018-11-20T18:51:14.979Z,11.60
2018-11-20T18:54:53.080Z,13.70
2018-11-20T18:58:14.781Z,15.70
2018-11-20T19:01:39.835Z,20.40
2018-11-20T19:05:01.866Z,18.90
2018-11-20T19:08:24.171Z,21.23
2018-11-20T19:11:46.196Z,19.57
2018-11-20T19:15:12.057Z,19.60
2018-11-20T19:18:50.160Z,20.10
2018-11-20T19:22:11.191Z,16.60
2018-11-20T19:25:32.376Z,23.40
2018-11-20T19:29:04.092Z,17.07
2018-11-20T19:32:29.814Z,16.30
2018-11-20T19:35:52.167Z,15.47
2018-11-20T19:39:24.281Z,16.87
2018-11-20T19:42:46.516Z,21.33
2018-11-20T19:46:14.240Z,20.30
2018-11-20T19:49:35.599Z,17.40
2018-11-20T19:52:57.385Z,24.57
2018-11-20T19:56:20.103Z,17.20
2018-11-20T19:59:41.622Z,20.17
2018-11-20T20:03:03.534Z,21.87
2018-11-20T20:06:25.291Z,17.70
2018-11-20T20:10:17.620Z,20.87
2018-11-20T20:13:46.928Z,20.30
2018-11-20T20:17:12.597Z,16.90
2018-11-20T20:20:35.516Z,18.73
2018-11-20T20:23:47.127Z,16.60
2018-11-20T20:27:22.274Z,26.37
2018-11-20T20:30:48.092Z,23.47
2018-11-20T20:34:23.254Z,20.93
2018-11-20T20:37:41.034Z,27.07
2018-11-20T20:41:05.240Z,24.83
2018-11-20T20:44:37.413Z,23.97
2018-11-20T20:48:00.437Z,26.17
2018-11-20T20:51:30.672Z,27.60
2018-11-20T20:54:53.362Z,24.27
2018-11-20T20:58:16.371Z,23.70
2018-11-20T21:01:37.974Z,28.67
2018-11-20T21:05:00.525Z,24.43
2018-11-20T21:08:36.298Z,30.17
2018-11-20T21:11:51.391Z,25.60
2018-11-20T21:15:13.194Z,27.30
2018-11-20T21:18:48.078Z,27.40
2018-11-20T21:22:12.233Z,25.20
2018-11-20T21:25:31.534Z,29.90
2018-11-20T21:28:44.611Z,21.97
2018-11-20T21:32:25.656Z,28.37
2018-11-20T21:35:57.562Z,28.33
2018-11-20T21:39:26.533Z,23.43
2018-11-20T21:42:55.841Z,26.13
2018-11-20T21:46:34.048Z,26.70
2018-11-20T21:49:55.862Z,25.60
2018-11-20T21:53:19.799Z,34.47
2018-11-20T21:56:45.452Z,39.93
2018-11-20T22:00:14.843Z,31.40
2018-11-20T22:03:36.659Z,35.80
2018-11-20T22:06:59.613Z,35.93
2018-11-20T22:10:21.038Z,34.93
2018-11-20T22:13:53.285Z,30.77
2018-11-20T22:17:16.479Z,40.87
2018-11-20T22:20:38.368Z,38.37
2018-11-20T22:24:01.458Z,33.70
2018-11-20T22:27:39.822Z,40.23
2018-11-20T22:31:01.745Z,38.40
2018-11-20T22:34:23.431Z,32.07
2018-11-20T22:37:44.913Z,39.27
2018-11-20T22:41:06.732Z,30.60
2018-11-20T22:44:23.542Z,33.80
2018-11-20T22:47:46.587Z,33.47
2018-11-20T22:51:24.773Z,42.20
2018-11-20T22:54:53.760Z,32.73
2018-11-20T22:58:20.914Z,32.43
2018-11-20T23:01:43.736Z,38.67
2018-11-20T23:05:08.140Z,37.50
2018-11-20T23:08:11.987Z,35.00
2018-11-20T23:11:15.782Z,34.80
2018-11-20T23:14:19.773Z,32.50
2018-11-20T23:17:23.740Z,36.87
2018-11-20T23:20:27.657Z,29.43
2018-11-20T23:23:31.623Z,42.70
2018-11-20T23:26:35.787Z,37.27
2018-11-20T23:29:39.496Z,39.50
2018-11-20T23:32:43.577Z,33.37
2018-11-20T23:35:47.519Z,31.13
2018-11-20T23:38:51.405Z,39.70
2018-11-20T23:41:55.216Z,28.20
2018-11-20T23:44:59.370Z,31.90
2018-11-20T23:48:03.254Z,31.63
2018-11-20T23:51:07.244Z,28.23
2018-11-20T23:54:11.166Z,29.37
2018-11-20T23:57:15.112Z,27.07
